Time;durP1;ratioP1;P1;durP2;ratioP2;P2;SDS_P1;SDS_P2;PMS_P1;PMS_P2;Temp;Humidity;BMP_temperature;BMP_pressure;BME280_temperature;BME280_humidity;BME280_pressure;Samples;Min_cycle;Max_cycle;Signal;HPM_P1;HPM_P2
2023/01/01 00:02:24;;;;;;;;;8.00;4.25;;;;;8.89;82.40;98805.72;4934035;28;102062;-70
2023/01/01 00:04:59;;;;;;;;;3.00;2.25;;;;;8.86;82.76;98808.81;4928850;28;101916;-69
2023/01/01 00:07:26;;;;;;;;;7.00;4.00;;;;;8.77;82.53;98799.13;4926289;28;102293;-70
2023/01/01 00:12:38;;;;;;;;;9.75;8.00;;;;;8.75;82.72;98811.94;4912959;28;102131;-69
2023/01/01 00:15:06;;;;;;;;;8.00;7.00;;;;;8.69;82.45;98818.06;4877682;28;102167;-70
2023/01/01 00:17:32;;;;;;;;;9.25;9.00;;;;;8.62;82.83;98809.03;4920024;28;102534;-70
2023/01/01 00:20:00;;;;;;;;;6.75;4.25;;;;;8.61;83.28;98815.44;4879410;28;1457273;-71
2023/01/01 00:22:26;;;;;;;;;13.75;11.75;;;;;8.59;83.02;98793.25;4929365;28;101999;-69
2023/01/01 00:25:13;;;;;;;;;19.75;16.00;;;;;8.46;83.99;98787.66;4930319;28;102670;-70
2023/01/01 00:27:41;;;;;;;;;10.00;9.25;;;;;8.50;83.43;98786.25;4930487;28;102327;-69
2023/01/01 00:30:09;;;;;;;;;10.50;9.25;;;;;8.45;83.54;98796.75;4889811;28;104016;-69
2023/01/01 00:32:37;;;;;;;;;10.00;8.75;;;;;8.43;84.10;98804.16;4923155;28;102107;-68
2023/01/01 00:35:04;;;;;;;;;6.00;4.50;;;;;8.29;84.08;98781.56;4912731;28;102274;-69
2023/01/01 00:37:31;;;;;;;;;8.00;8.00;;;;;8.20;85.23;98765.63;4914244;28;102213;-69
2023/01/01 00:39:58;;;;;;;;;8.00;7.25;;;;;8.34;84.93;98795.31;4911628;28;104036;-69
2023/01/01 00:42:25;;;;;;;;;8.75;8.00;;;;;8.24;84.78;98773.16;4911754;28;102243;-68
2023/01/01 00:44:52;;;;;;;;;8.75;7.50;;;;;8.34;84.54;98799.88;4902196;28;102122;-69
2023/01/01 00:47:19;;;;;;;;;7.25;6.00;;;;;8.34;84.63;98792.63;4913745;28;102300;-68
2023/01/01 00:49:46;;;;;;;;;7.00;6.50;;;;;8.31;84.03;98797.56;4908096;28;104295;-69
2023/01/01 00:52:13;;;;;;;;;5.50;5.50;;;;;8.30;83.66;98803.94;4925189;28;102185;-69
2023/01/01 00:54:39;;;;;;;;;7.25;6.50;;;;;8.30;84.49;98803.94;4882117;28;102524;-69
2023/01/01 00:57:07;;;;;;;;;4.50;3.75;;;;;8.29;84.45;98807.63;4920697;28;102410;-70
2023/01/01 00:59:34;;;;;;;;;7.25;6.75;;;;;8.28;84.80;98808.66;4920114;28;104414;-69
2023/01/01 01:02:01;;;;;;;;;10.50;9.75;;;;;8.26;84.40;98805.31;4915713;28;102426;-68
2023/01/01 01:04:28;;;;;;;;;13.50;13.00;;;;;8.19;84.30;98796.28;4904917;28;102115;-70
2023/01/01 01:06:55;;;;;;;;;20.75;14.25;;;;;8.28;83.95;98806.81;4879641;28;102048;-68
2023/01/01 01:09:22;;;;;;;;;14.25;14.00;;;;;8.29;83.81;98804.94;4896095;28;104016;-68
2023/01/01 01:11:49;;;;;;;;;15.25;11.50;;;;;8.32;84.25;98800.06;4911251;28;102175;-68
2023/01/01 01:14:37;;;;;;;;;10.00;9.50;;;;;8.36;84.21;98811.31;4904195;28;102772;-69
2023/01/01 01:17:04;;;;;;;;;8.75;8.00;;;;;8.36;84.15;98808.63;4926021;28;102396;-70
2023/01/01 01:19:30;;;;;;;;;10.00;9.75;;;;;8.33;83.77;98804.41;4915644;28;104077;-69
2023/01/01 01:21:57;;;;;;;;;13.00;11.25;;;;;8.32;84.00;98810.00;4926001;28;102286;-69
2023/01/01 01:24:25;;;;;;;;;13.00;13.00;;;;;8.33;83.41;98815.19;4884437;28;102332;-69
2023/01/01 01:26:52;;;;;;;;;11.00;9.00;;;;;8.31;83.93;98811.88;4920901;28;102195;-69
2023/01/01 01:29:19;;;;;;;;;21.25;15.75;;;;;8.30;84.26;98822.81;4909776;28;104043;-68
2023/01/01 01:31:46;;;;;;;;;26.75;25.50;;;;;8.26;84.32;98813.38;4927175;28;102014;-68
2023/01/01 01:34:14;;;;;;;;;45.50;37.50;;;;;8.29;83.63;98816.56;4920854;28;102265;-68
2023/01/01 01:36:42;;;;;;;;;49.75;36.00;;;;;8.25;84.55;98817.94;4912998;28;102515;-69
2023/01/01 01:39:12;;;;;;;;;43.75;38.25;;;;;8.15;84.34;98808.44;4912525;28;104010;-68
2023/01/01 01:41:39;;;;;;;;;46.00;37.25;;;;;8.10;84.16;98814.38;4931419;28;102228;-68
2023/01/01 01:44:44;;;;;;;;;40.25;34.25;;;;;8.02;84.71;98817.94;4925526;28;102509;-68
2023/01/01 01:47:14;;;;;;;;;39.50;28.25;;;;;8.04;85.06;98804.31;4926640;28;102442;-68
2023/01/01 01:49:43;;;;;;;;;36.00;26.75;;;;;8.00;85.12;98792.22;4929258;28;103660;-69
2023/01/01 01:52:11;;;;;;;;;33.50;29.50;;;;;7.93;85.17;98789.41;4924343;28;102476;-69
2023/01/01 01:54:39;;;;;;;;;36.75;32.25;;;;;7.86;85.58;98791.16;4912883;28;102090;-68
2023/01/01 01:57:12;;;;;;;;;45.25;36.25;;;;;7.65;86.45;98788.28;4915629;28;102556;-69
2023/01/01 01:59:46;;;;;;;;;50.75;39.75;;;;;7.61;86.24;98786.91;4914571;28;104015;-69
2023/01/01 02:02:39;;;;;;;;;44.25;37.50;;;;;7.65;86.28;98788.28;4902286;28;102576;-69
2023/01/01 02:05:07;;;;;;;;;37.25;33.50;;;;;7.67;86.25;98793.44;4904139;28;102220;-68
2023/01/01 02:07:35;;;;;;;;;32.75;28.00;;;;;7.58;87.04;98782.75;4910310;28;102401;-70
2023/01/01 02:10:10;;;;;;;;;30.25;28.25;;;;;7.67;86.65;98794.28;4920520;28;104027;-70
2023/01/01 02:12:57;;;;;;;;;31.75;26.75;;;;;7.64;85.17;98794.66;4931351;28;102444;-68
2023/01/01 02:16:02;;;;;;;;;43.50;32.75;;;;;7.63;86.55;98801.06;4913839;28;105943;-68
2023/01/01 02:19:15;;;;;;;;;31.75;24.50;;;;;7.57;85.82;98804.44;4919016;28;102585;-70
2023/01/01 02:22:20;;;;;;;;;21.00;18.00;;;;;7.58;85.75;98787.28;4923911;28;108679;-69
2023/01/01 02:25:27;;;;;;;;;14.75;13.50;;;;;7.57;85.46;98794.53;4922522;28;102263;-69
2023/01/01 02:28:50;;;;;;;;;14.25;13.50;;;;;7.53;84.34;98795.06;4919532;28;103121;-68
2023/01/01 02:31:29;;;;;;;;;12.75;10.50;;;;;7.48;85.05;98789.34;4923018;28;102464;-68
2023/01/01 02:34:02;;;;;;;;;10.50;9.75;;;;;7.39;86.00;98766.22;4921863;28;104057;-68
2023/01/01 02:36:32;;;;;;;;;10.25;9.00;;;;;7.46;85.69;98778.78;4929145;28;102250;-68
2023/01/01 02:39:03;;;;;;;;;9.25;6.00;;;;;7.44;85.89;98779.97;4913142;28;102547;-68
2023/01/01 02:41:35;;;;;;;;;6.00;6.00;;;;;7.45;86.35;98778.97;4922838;28;102114;-69
2023/01/01 02:44:03;;;;;;;;;7.00;5.75;;;;;7.44;86.18;98783.50;4934127;28;108635;-68
2023/01/01 02:46:34;;;;;;;;;7.50;6.75;;;;;7.43;86.62;98779.13;4930813;28;102185;-69
2023/01/01 02:49:03;;;;;;;;;16.00;15.00;;;;;7.45;86.35;98781.66;4916625;28;103677;-68
2023/01/01 02:51:54;;;;;;;;;28.25;22.25;;;;;7.51;86.75;98791.72;4913678;28;102085;-69
2023/01/01 02:54:31;;;;;;;;;35.25;30.75;;;;;7.29;86.16;98798.72;4931233;28;104154;-68
2023/01/01 02:57:23;;;;;;;;;36.25;28.75;;;;;7.22;85.68;98813.03;4934854;28;102045;-68
2023/01/01 03:03:09;;;;;;;;;46.75;38.25;;;;;7.55;85.73;98825.31;4924585;28;102268;-68
2023/01/01 03:09:00;;;;;;;;;27.75;21.75;;;;;7.42;82.77;98811.59;4913649;28;102093;-69
2023/01/01 03:11:56;;;;;;;;;41.50;33.25;;;;;6.97;85.03;98818.50;4918621;28;102065;-68
2023/01/01 03:14:43;;;;;;;;;57.00;41.00;;;;;6.87;88.08;98815.19;4907890;28;102581;-69
2023/01/01 03:17:19;;;;;;;;;42.50;36.00;;;;;6.81;87.61;98799.72;4863838;28;108655;-69
2023/01/01 03:19:49;;;;;;;;;28.25;23.25;;;;;6.93;88.24;98814.50;4891533;28;102346;-68
2023/01/01 03:22:19;;;;;;;;;24.75;21.25;;;;;6.89;86.78;98818.50;4926307;28;103540;-68
2023/01/01 03:24:57;;;;;;;;;20.00;16.75;;;;;6.83;86.03;98808.47;4932640;28;103918;-68
2023/01/01 03:27:31;;;;;;;;;17.75;15.25;;;;;6.72;86.14;98801.59;4908408;28;104577;-68
2023/01/01 03:30:01;;;;;;;;;14.75;13.00;;;;;6.62;86.38;98805.47;4905292;28;102225;-68
2023/01/01 03:35:25;;;;;;;;;29.00;24.00;;;;;6.34;88.31;98815.78;4917332;28;104457;-69
2023/01/01 03:37:57;;;;;;;;;36.00;29.00;;;;;6.28;88.87;98829.88;4913268;28;104016;-69
2023/01/01 03:40:27;;;;;;;;;22.50;20.00;;;;;6.28;89.55;98819.97;4925785;28;102131;-69
2023/01/01 03:43:02;;;;;;;;;37.75;33.25;;;;;6.20;90.04;98819.97;4915621;28;102195;-68
2023/01/01 03:45:34;;;;;;;;;38.75;33.75;;;;;6.09;90.30;98817.63;4934418;28;102924;-68
2023/01/01 03:48:03;;;;;;;;;58.50;45.75;;;;;6.00;92.65;98831.19;4896482;28;108490;-70
2023/01/01 03:51:04;;;;;;;;;72.33;51.67;;;;;5.92;93.01;98823.97;4919773;28;102301;-68
2023/01/01 03:53:39;;;;;;;;;61.67;48.33;;;;;5.98;92.50;98815.28;4926573;28;102283;-69
2023/01/01 03:56:09;;;;;;;;;55.50;45.00;;;;;5.93;91.06;98809.56;4926037;28;102728;-69
2023/01/01 03:58:46;;;;;;;;;70.33;50.00;;;;;5.77;92.05;98820.22;4914566;28;104288;-69
2023/01/01 04:01:23;;;;;;;;;56.75;43.25;;;;;5.84;91.91;98811.38;4915956;28;104501;-69
2023/01/01 04:03:51;;;;;;;;;32.00;25.25;;;;;5.92;91.53;98805.19;4931260;28;102727;-69
2023/01/01 04:06:19;;;;;;;;;35.75;29.25;;;;;5.91;90.25;98800.84;4920503;28;102353;-68
2023/01/01 04:08:49;;;;;;;;;16.75;9.50;;;;;5.95;90.72;98815.59;4908505;28;104095;-69
2023/01/01 04:14:28;;;;;;;;;58.67;46.00;;;;;6.24;92.17;98799.84;4896130;28;102272;-69
2023/01/01 04:16:56;;;;;;;;;51.00;38.25;;;;;6.43;92.13;98789.75;4913667;28;102211;-69
2023/01/01 04:19:23;;;;;;;;;34.00;29.50;;;;;6.57;91.18;98805.19;4928493;28;104101;-69
2023/01/01 04:21:50;;;;;;;;;36.75;28.75;;;;;6.73;90.90;98791.69;4914549;28;102006;-69
2023/01/01 04:24:17;;;;;;;;;31.00;26.25;;;;;6.88;90.13;98802.59;4930872;28;102452;-69
2023/01/01 04:26:44;;;;;;;;;42.75;36.50;;;;;6.87;88.50;98807.13;4914642;28;102338;-69
2023/01/01 04:29:11;;;;;;;;;38.25;35.25;;;;;7.23;87.26;98820.94;4903005;28;104017;-69
2023/01/01 04:31:38;;;;;;;;;32.50;25.75;;;;;7.36;87.11;98809.59;4896990;28;102091;-69
2023/01/01 04:34:05;;;;;;;;;16.00;14.00;;;;;7.48;87.20;98814.41;4917729;28;102095;-70
2023/01/01 04:36:33;;;;;;;;;15.50;13.75;;;;;7.54;85.35;98812.88;4928992;28;102132;-68
2023/01/01 04:39:01;;;;;;;;;30.50;28.25;;;;;7.45;85.98;98816.63;4918294;28;108686;-68
2023/01/01 04:41:28;;;;;;;;;18.50;15.25;;;;;7.53;85.94;98821.97;4907408;28;102400;-69
2023/01/01 04:43:55;;;;;;;;;19.75;18.50;;;;;7.59;86.06;98821.25;4930489;28;102257;-68
2023/01/01 04:46:23;;;;;;;;;15.00;14.00;;;;;7.62;85.54;98823.59;4932289;28;102380;-69
2023/01/01 04:48:50;;;;;;;;;13.50;12.00;;;;;7.73;84.97;98827.75;4923428;28;104210;-69
2023/01/01 04:51:19;;;;;;;;;7.75;6.75;;;;;7.94;84.20;98836.00;4927096;28;102336;-69
2023/01/01 04:53:47;;;;;;;;;13.50;10.25;;;;;7.99;83.63;98847.94;4923749;28;102104;-69
2023/01/01 04:56:17;;;;;;;;;12.00;10.25;;;;;8.19;82.89;98834.00;4923638;28;102253;-68
2023/01/01 04:58:45;;;;;;;;;14.25;11.00;;;;;8.30;82.56;98820.13;4925359;28;104053;-69
2023/01/01 05:01:23;;;;;;;;;18.00;12.25;;;;;8.39;81.66;98840.59;4912128;28;102343;-69
2023/01/01 05:03:51;;;;;;;;;13.00;10.50;;;;;8.52;81.31;98827.31;4926412;28;102084;-67
2023/01/01 05:06:18;;;;;;;;;9.50;8.25;;;;;8.75;80.02;98813.78;4928122;28;102337;-68
2023/01/01 05:08:48;;;;;;;;;12.50;11.00;;;;;9.05;77.56;98826.28;4930916;28;104335;-69
2023/01/01 05:11:18;;;;;;;;;15.50;14.75;;;;;9.25;77.02;98838.19;4917315;28;102129;-69
2023/01/01 05:13:47;;;;;;;;;13.25;10.25;;;;;9.38;76.39;98835.66;4922031;28;102160;-69
2023/01/01 05:16:17;;;;;;;;;8.00;7.75;;;;;9.49;75.30;98845.16;4891620;28;102327;-68
2023/01/01 05:18:45;;;;;;;;;8.25;7.50;;;;;9.59;75.15;98834.88;4925144;28;104954;-69
2023/01/01 05:21:21;;;;;;;;;6.75;5.50;;;;;9.63;74.92;98851.56;4926176;28;102463;-67
2023/01/01 05:23:52;;;;;;;;;7.50;5.25;;;;;9.64;74.54;98853.22;4917432;28;102096;-69
2023/01/01 05:26:22;;;;;;;;;6.25;4.75;;;;;9.70;74.63;98858.72;4916272;28;102129;-68
2023/01/01 05:28:49;;;;;;;;;4.00;3.00;;;;;9.72;74.70;98867.47;4924482;28;103994;-68
2023/01/01 05:31:21;;;;;;;;;1.00;1.00;;;;;9.71;74.63;98871.19;4906113;28;104224;-70
2023/01/01 05:33:49;;;;;;;;;6.75;3.00;;;;;9.69;74.07;98873.22;4926171;28;102173;-69
2023/01/01 05:36:23;;;;;;;;;7.00;5.00;;;;;9.61;74.52;98886.00;4924316;28;102275;-70
2023/01/01 05:38:51;;;;;;;;;22.00;16.25;;;;;9.55;74.01;98884.88;4925739;28;104115;-69
2023/01/01 05:41:20;;;;;;;;;14.25;13.50;;;;;9.64;73.98;98872.94;4915454;28;102124;-69
2023/01/01 05:43:48;;;;;;;;;13.75;11.00;;;;;9.65;73.65;98877.34;4925821;28;102084;-70
2023/01/01 05:46:18;;;;;;;;;10.00;8.75;;;;;9.63;74.07;98867.75;4927338;28;102579;-70
2023/01/01 05:48:45;;;;;;;;;8.00;6.25;;;;;9.63;74.15;98867.75;4915648;28;104175;-69
2023/01/01 05:51:21;;;;;;;;;6.00;6.00;;;;;9.59;74.39;98861.88;4918505;28;102121;-68
2023/01/01 05:53:48;;;;;;;;;4.75;4.00;;;;;9.58;74.41;98865.63;4928600;28;102173;-68
2023/01/01 05:56:16;;;;;;;;;4.00;3.00;;;;;9.58;73.89;98868.31;4923342;28;102562;-69
2023/01/01 05:58:44;;;;;;;;;7.75;7.00;;;;;9.72;73.62;98880.97;4915950;28;104128;-69
2023/01/01 06:01:18;;;;;;;;;4.75;4.75;;;;;9.80;73.75;98888.97;4916892;28;103189;-68
2023/01/01 06:03:47;;;;;;;;;4.00;4.00;;;;;9.85;73.29;98883.81;4923184;28;102042;-69
2023/01/01 06:06:20;;;;;;;;;5.00;5.00;;;;;9.88;73.48;98876.34;4909508;28;102451;-69
2023/01/01 06:08:49;;;;;;;;;7.25;4.50;;;;;9.78;73.49;98868.56;4900996;28;104067;-69
2023/01/01 06:11:17;;;;;;;;;6.00;5.00;;;;;9.88;73.46;98876.34;4923846;28;102268;-68
2023/01/01 06:13:44;;;;;;;;;3.00;3.00;;;;;9.86;73.80;98893.56;4915364;28;102036;-69
2023/01/01 06:16:12;;;;;;;;;3.50;3.00;;;;;9.85;73.47;98888.38;4912717;28;102305;-69
2023/01/01 06:18:39;;;;;;;;;4.00;3.50;;;;;9.85;73.81;98891.09;4925549;28;103995;-70
2023/01/01 06:21:14;;;;;;;;;3.25;2.50;;;;;9.86;73.66;98900.88;4923852;28;102435;-70
2023/01/01 06:23:41;;;;;;;;;6.50;5.00;;;;;9.86;73.63;98898.16;4918605;28;102490;-70
2023/01/01 06:26:13;;;;;;;;;3.00;3.00;;;;;9.86;73.33;98904.38;4915895;28;102432;-69
2023/01/01 06:28:41;;;;;;;;;4.00;3.50;;;;;9.82;73.50;98892.28;4926963;28;104010;-68
2023/01/01 06:31:11;;;;;;;;;8.00;6.50;;;;;9.92;72.79;98910.06;4917366;28;102502;-69
2023/01/01 06:33:39;;;;;;;;;8.50;5.00;;;;;9.94;72.89;98910.72;4914271;28;102971;-69
2023/01/01 06:36:09;;;;;;;;;10.00;9.00;;;;;9.98;72.87;98918.25;4893161;28;102363;-71
2023/01/01 06:38:40;;;;;;;;;6.50;6.00;;;;;9.91;72.22;98909.22;4915408;28;104005;-70
2023/01/01 06:41:10;;;;;;;;;10.75;7.50;;;;;10.05;72.34;98929.13;4917904;28;102200;-70
2023/01/01 06:43:38;;;;;;;;;8.00;7.00;;;;;10.06;72.69;98925.41;4919564;28;102031;-69
2023/01/01 06:46:06;;;;;;;;;11.25;7.75;;;;;10.02;72.46;98922.25;4913171;28;102634;-68
2023/01/01 06:48:35;;;;;;;;;9.00;5.00;;;;;10.09;72.44;98938.53;4922343;28;108479;-68
2023/01/01 06:51:11;;;;;;;;;8.00;8.00;;;;;10.07;72.56;98937.88;4926034;28;104297;-68
2023/01/01 06:53:38;;;;;;;;;8.50;8.00;;;;;10.01;72.37;98935.94;4932105;28;102189;-69
2023/01/01 06:56:06;;;;;;;;;6.50;6.50;;;;;10.08;71.91;98943.13;4915034;28;102602;-68
2023/01/01 06:58:33;;;;;;;;;6.00;5.50;;;;;10.15;71.35;98943.19;4913183;28;109039;-68
2023/01/01 07:01:11;;;;;;;;;9.50;7.50;;;;;10.23;71.24;98956.59;4933436;28;102337;-70
2023/01/01 07:03:39;;;;;;;;;5.50;5.00;;;;;10.29;71.17;98955.84;4915745;28;102155;-68
2023/01/01 07:06:07;;;;;;;;;7.25;5.00;;;;;10.33;70.95;98956.31;4918685;28;102469;-70
2023/01/01 07:08:35;;;;;;;;;4.75;4.25;;;;;10.38;70.52;98959.28;4926163;28;103710;-68
2023/01/01 07:11:02;;;;;;;;;6.50;5.75;;;;;10.44;70.33;98967.47;4915013;28;102246;-68
2023/01/01 07:13:30;;;;;;;;;6.00;5.00;;;;;10.46;70.02;98962.69;4932752;28;102291;-68
2023/01/01 07:15:57;;;;;;;;;9.75;8.50;;;;;10.51;69.51;98949.44;4922731;28;104083;-70
2023/01/01 07:18:24;;;;;;;;;9.25;7.00;;;;;10.60;70.12;98967.22;4895612;28;104147;-68
2023/01/01 07:20:54;;;;;;;;;9.25;8.75;;;;;10.57;69.59;98956.78;4919864;28;102302;-69
2023/01/01 07:23:22;;;;;;;;;7.00;5.50;;;;;10.60;69.18;98959.09;4929524;28;107841;-69
2023/01/01 07:25:50;;;;;;;;;5.00;5.00;;;;;10.66;69.72;98969.16;4929071;28;102234;-69
2023/01/01 07:28:19;;;;;;;;;9.75;6.00;;;;;10.69;68.82;98976.88;4921069;28;103982;-69
2023/01/01 07:30:46;;;;;;;;;5.00;5.00;;;;;10.70;69.50;98970.44;4921473;28;102239;-68
2023/01/01 07:33:15;;;;;;;;;0.00;0.00;;;;;10.66;69.20;98979.97;4933719;28;102563;-70
2023/01/01 07:35:44;;;;;;;;;10.25;9.00;;;;;10.57;69.45;98964.91;4914175;28;102641;-69
2023/01/01 07:38:12;;;;;;;;;12.75;11.00;;;;;10.62;69.12;98978.69;4922234;28;106119;-69
2023/01/01 07:40:40;;;;;;;;;14.75;10.00;;;;;10.65;69.07;98980.16;4929652;28;102003;-68
2023/01/01 07:43:07;;;;;;;;;9.25;9.00;;;;;10.65;68.93;98982.88;4912862;28;103681;-69
2023/01/01 07:45:34;;;;;;;;;8.00;8.00;;;;;10.68;69.16;98985.19;4935317;28;102321;-68
2023/01/01 07:48:01;;;;;;;;;6.25;5.00;;;;;10.65;69.12;98975.59;4929059;28;106481;-69
2023/01/01 07:50:31;;;;;;;;;3.75;3.00;;;;;10.73;68.57;98986.28;4925513;28;102497;-69
2023/01/01 07:52:58;;;;;;;;;6.25;3.50;;;;;10.57;68.34;98956.78;4927020;28;102064;-68
2023/01/01 07:55:26;;;;;;;;;4.50;4.00;;;;;10.80;68.29;99001.75;4924092;28;102134;-69
2023/01/01 07:57:53;;;;;;;;;4.00;3.50;;;;;10.83;67.96;98995.94;4931557;28;103956;-69
2023/01/01 08:00:21;;;;;;;;;8.25;7.25;;;;;10.83;67.59;98999.50;4916151;28;102443;-69
2023/01/01 08:02:48;;;;;;;;;4.00;4.00;;;;;10.87;67.58;98991.81;4909712;28;102011;-68
2023/01/01 08:05:16;;;;;;;;;3.75;3.75;;;;;10.89;67.34;98996.03;4918416;28;102105;-69
2023/01/01 08:07:51;;;;;;;;;3.00;3.00;;;;;10.95;66.83;99008.75;4909405;28;103916;-69
2023/01/01 08:10:19;;;;;;;;;3.00;3.00;;;;;11.03;66.97;99024.03;4911406;28;102273;-68
2023/01/01 08:12:46;;;;;;;;;4.50;3.50;;;;;11.10;66.50;99025.78;4927761;28;102406;-68
2023/01/01 08:15:14;;;;;;;;;4.00;4.00;;;;;11.07;66.08;99009.09;4923408;28;102246;-67
2023/01/01 08:17:41;;;;;;;;;4.25;3.25;;;;;11.23;66.77;99030.47;4915021;28;103679;-70
2023/01/01 08:20:13;;;;;;;;;3.25;3.00;;;;;11.29;66.45;99031.56;4916463;28;102235;-70
2023/01/01 08:22:40;;;;;;;;;3.00;2.75;;;;;11.34;67.12;99031.81;4930708;28;102173;-68
2023/01/01 08:25:07;;;;;;;;;1.00;0.00;;;;;11.36;66.76;99029.72;4928097;28;102103;-68
2023/01/01 08:27:36;;;;;;;;;4.00;2.25;;;;;11.33;66.52;99027.44;4894515;28;108798;-68
2023/01/01 08:30:04;;;;;;;;;2.75;2.75;;;;;11.27;65.89;99025.50;4916916;28;102227;-68
2023/01/01 08:32:31;;;;;;;;;2.75;2.50;;;;;11.39;66.13;99029.38;4920628;28;102167;-68
2023/01/01 08:34:58;;;;;;;;;2.75;2.75;;;;;11.43;65.74;99033.34;4932280;28;104356;-69
2023/01/01 08:37:25;;;;;;;;;1.75;1.00;;;;;11.45;65.87;99037.53;4914181;28;103981;-69
2023/01/01 08:39:52;;;;;;;;;3.50;3.00;;;;;11.41;65.78;99038.94;4919224;28;102534;-68
2023/01/01 08:42:19;;;;;;;;;2.00;2.00;;;;;11.43;66.15;99046.88;4914108;28;102210;-68
2023/01/01 08:44:46;;;;;;;;;2.00;2.00;;;;;11.42;65.69;99046.06;4913270;28;102021;-69
2023/01/01 08:47:22;;;;;;;;;2.00;2.00;;;;;11.45;65.56;99048.34;4921896;28;103984;-68
2023/01/01 08:49:49;;;;;;;;;4.00;3.00;;;;;11.40;66.03;99052.66;4891881;28;102380;-69
2023/01/01 08:52:17;;;;;;;;;3.00;3.00;;;;;11.43;65.20;99052.31;4907269;28;102144;-69
2023/01/01 08:54:44;;;;;;;;;4.00;3.00;;;;;11.44;66.10;99049.38;4889713;28;102501;-69
2023/01/01 08:57:12;;;;;;;;;4.00;3.00;;;;;11.53;65.98;99059.03;4916786;28;104166;-68
2023/01/01 08:59:39;;;;;;;;;5.25;3.00;;;;;11.44;65.46;99021.47;4917262;28;103964;-71
2023/01/01 09:02:06;;;;;;;;;4.75;4.50;;;;;11.69;64.48;99033.53;4910962;28;102576;-69
2023/01/01 09:04:33;;;;;;;;;4.75;4.50;;;;;11.84;64.33;99030.78;4892775;28;102587;-69
2023/01/01 09:07:00;;;;;;;;;6.75;5.75;;;;;12.01;64.59;99051.09;4924165;28;104003;-68
2023/01/01 09:09:27;;;;;;;;;4.00;3.75;;;;;12.08;63.01;99052.78;4905555;28;102432;-68
2023/01/01 09:12:02;;;;;;;;;5.75;4.00;;;;;12.19;62.39;99043.28;4907182;28;102992;-69
2023/01/01 09:14:31;;;;;;;;;6.75;5.50;;;;;12.31;63.21;99046.25;4894675;28;102384;-68
2023/01/01 09:16:58;;;;;;;;;6.75;6.00;;;;;12.39;62.32;99046.91;4887333;28;104221;-69
2023/01/01 09:19:25;;;;;;;;;9.25;7.00;;;;;12.45;61.83;99043.41;4912672;28;102302;-69
2023/01/01 09:21:53;;;;;;;;;5.75;5.00;;;;;12.52;62.03;99041.53;4911990;28;102003;-68
2023/01/01 09:24:20;;;;;;;;;6.50;5.00;;;;;12.56;61.87;99038.44;4894995;28;103565;-70
2023/01/01 09:26:48;;;;;;;;;6.00;4.00;;;;;12.63;62.96;99028.44;4900469;28;104038;-68
2023/01/01 09:29:20;;;;;;;;;4.25;3.00;;;;;12.68;62.95;99032.22;4906285;28;102353;-70
2023/01/01 09:31:49;;;;;;;;;5.00;4.25;;;;;12.71;61.57;99017.41;4917622;28;102040;-69
2023/01/01 09:34:17;;;;;;;;;4.75;4.75;;;;;12.77;62.02;99003.84;4889648;28;102416;-68
2023/01/01 09:36:45;;;;;;;;;4.50;4.25;;;;;12.84;60.92;99003.84;4925603;28;104490;-69
2023/01/01 09:39:14;;;;;;;;;12.25;10.50;;;;;12.86;61.17;99013.47;4886341;28;102408;-69
2023/01/01 09:42:03;;;;;;;;;9.00;6.75;;;;;12.92;60.22;99017.25;4909770;28;102167;-70
2023/01/01 09:44:54;;;;;;;;;5.00;5.00;;;;;13.02;61.14;99011.41;4913203;28;102653;-69
2023/01/01 09:47:39;;;;;;;;;5.00;5.00;;;;;13.06;60.08;99008.06;4915711;28;108278;-69
2023/01/01 09:50:16;;;;;;;;;5.00;4.00;;;;;13.07;59.77;99009.75;4909986;28;102105;-68
2023/01/01 09:52:58;;;;;;;;;5.00;4.00;;;;;13.21;60.57;99000.59;4891763;28;102580;-68
2023/01/01 09:55:40;;;;;;;;;4.00;3.25;;;;;13.18;60.29;98992.88;4905041;28;102336;-68
2023/01/01 09:58:10;;;;;;;;;5.50;3.00;;;;;13.32;59.25;99010.88;4918219;28;108422;-69
2023/01/01 10:00:41;;;;;;;;;5.25;4.50;;;;;13.36;60.62;99009.41;4929844;28;102148;-69
2023/01/01 10:03:34;;;;;;;;;4.00;4.00;;;;;13.44;60.07;99010.22;4927382;28;102107;-69
2023/01/01 10:06:19;;;;;;;;;3.00;2.00;;;;;13.48;59.31;99008.75;4911037;28;102266;-68
2023/01/01 10:08:46;;;;;;;;;3.25;3.25;;;;;13.52;58.88;99004.56;4916735;28;108664;-69
2023/01/01 10:11:23;;;;;;;;;4.50;3.75;;;;;13.59;58.60;99008.13;4920840;28;102403;-69
2023/01/01 10:13:53;;;;;;;;;4.00;3.00;;;;;13.68;59.84;99001.44;4911708;28;102225;-69
2023/01/01 10:16:41;;;;;;;;;5.75;3.50;;;;;13.77;58.56;98997.44;4914199;28;102023;-68
2023/01/01 10:19:42;;;;;;;;;3.00;3.00;;;;;13.89;58.20;99017.50;4921538;28;108586;-68
2023/01/01 10:22:19;;;;;;;;;2.25;2.25;;;;;13.99;58.10;99015.19;4923739;28;102093;-69
2023/01/01 10:24:55;;;;;;;;;3.00;3.00;;;;;14.07;58.06;99012.22;4913566;28;102561;-69
2023/01/01 10:27:28;;;;;;;;;5.25;4.00;;;;;14.16;56.13;99021.81;4915468;28;102319;-68
2023/01/01 10:29:56;;;;;;;;;6.75;5.50;;;;;14.18;56.36;99014.25;4894473;28;104413;-69
2023/01/01 10:32:32;;;;;;;;;4.00;4.00;;;;;14.26;55.66;99011.34;4917647;28;102153;-69
2023/01/01 10:35:02;;;;;;;;;7.00;5.00;;;;;14.27;56.29;98983.06;4923924;28;102467;-68
2023/01/01 10:37:34;;;;;;;;;6.50;5.00;;;;;14.42;54.76;98999.16;4922637;28;101977;-68
2023/01/01 10:40:12;;;;;;;;;5.75;5.50;;;;;14.50;55.50;99004.34;4926999;28;104015;-68
2023/01/01 10:42:39;;;;;;;;;5.50;4.00;;;;;14.55;55.25;99000.97;4926030;28;102248;-69
2023/01/01 10:45:19;;;;;;;;;4.00;4.00;;;;;14.63;55.03;98987.13;4916239;28;103000;-68
2023/01/01 10:48:10;;;;;;;;;2.50;2.00;;;;;14.78;54.90;98986.81;4914506;28;102505;-69
2023/01/01 10:50:47;;;;;;;;;5.00;4.25;;;;;14.88;54.21;98985.31;4921062;28;108697;-68
2023/01/01 10:53:23;;;;;;;;;6.00;5.50;;;;;15.01;56.00;98987.94;4918533;28;102274;-69
2023/01/01 10:55:59;;;;;;;;;5.00;5.00;;;;;15.04;54.21;98970.34;4924300;28;102330;-68
2023/01/01 10:58:42;;;;;;;;;8.25;7.75;;;;;15.28;53.19;98972.22;4928425;28;102157;-69
2023/01/01 11:01:17;;;;;;;;;8.00;7.00;;;;;15.37;52.93;98970.91;4927062;28;108711;-69
2023/01/01 11:04:03;;;;;;;;;5.25;4.75;;;;;15.43;53.00;98980.06;4915921;28;102135;-70
2023/01/01 11:06:40;;;;;;;;;6.00;5.50;;;;;15.40;52.12;98964.19;4901315;28;102081;-69
2023/01/01 11:09:30;;;;;;;;;3.00;3.00;;;;;15.55;51.67;98978.31;4911311;28;102445;-68
2023/01/01 11:12:03;;;;;;;;;5.75;5.25;;;;;15.56;53.37;98963.63;4906546;28;108622;-69
2023/01/01 11:14:52;;;;;;;;;7.00;4.33;;;;;15.52;50.61;98967.88;4919984;28;102155;-69
2023/01/01 11:17:25;;;;;;;;;5.33;5.33;;;;;15.51;51.02;98968.91;4912905;28;102420;-69
2023/01/01 11:19:53;;;;;;;;;7.25;6.00;;;;;15.38;50.14;98960.84;4911094;28;102139;-68
2023/01/01 11:22:40;;;;;;;;;7.00;5.00;;;;;15.43;50.60;98958.28;4922195;28;103778;-69
2023/01/01 11:25:18;;;;;;;;;4.50;4.00;;;;;15.47;50.32;98957.59;4912452;28;101863;-70
2023/01/01 11:27:46;;;;;;;;;5.00;5.00;;;;;15.53;50.49;98958.63;4904360;28;102289;-69
2023/01/01 11:30:20;;;;;;;;;4.00;4.00;;;;;15.57;50.29;98951.69;4919707;28;102433;-69
2023/01/01 11:32:50;;;;;;;;;5.00;5.00;;;;;15.59;50.43;98955.84;4911151;28;103939;-69
2023/01/01 11:35:25;;;;;;;;;5.25;4.00;;;;;15.63;50.86;98950.75;4905900;28;102288;-69
2023/01/01 11:37:53;;;;;;;;;3.67;3.00;;;;;15.67;50.08;98943.78;4912741;28;102089;-69
2023/01/01 11:40:29;;;;;;;;;4.00;3.00;;;;;15.74;51.34;98939.13;4910213;28;102217;-69
2023/01/01 11:43:00;;;;;;;;;3.33;2.67;;;;;15.80;51.46;98938.22;4920128;28;104005;-69
2023/01/01 11:45:33;;;;;;;;;4.00;4.00;;;;;15.82;51.00;98941.53;4918955;28;102479;-69
2023/01/01 11:48:15;;;;;;;;;5.67;3.67;;;;;15.92;50.99;98944.59;4923009;28;102052;-69
2023/01/01 11:50:54;;;;;;;;;4.67;4.67;;;;;15.96;50.86;98948.53;4920044;28;104597;-68
2023/01/01 11:53:21;;;;;;;;;4.00;4.00;;;;;16.00;51.16;98963.38;4895137;28;108444;-69
2023/01/01 11:56:13;;;;;;;;;6.00;5.67;;;;;15.92;50.64;98968.31;4909626;28;102025;-70
2023/01/01 11:59:13;;;;;;;;;7.00;5.00;;;;;15.95;49.77;98974.13;4915397;28;103347;-69
2023/01/01 12:01:48;;;;;;;;;6.00;4.00;;;;;15.99;50.68;98969.03;4908166;28;102404;-70
2023/01/01 12:04:18;;;;;;;;;7.33;6.00;;;;;16.00;50.73;98977.00;4915414;28;108877;-68